Airfield :







YOU CAN JOIN US ON...

 
LOGIN :

Register | Disclaimer

   EN    FR    IT 

 









Legend :    VFR   Marginal VFR   IFR   Intensive IFR   Very Intensive IFR
Visi :
Ceiling :
>= 8 km
>= 3000ft
5 to 8 km
1000 to 3000 ft
1500m to 5 km
500 to 1000 ft
800 to 1500m
200 to 500 ft
< 800m
< 200 ft
Symbols :   Thunderstorms  Fog  Heavy snow  Heavy precipitations  Wind > 20 kt






- Airport Elevation : 244 ft
- IATA code : YQB


CYQB - Quebec - Jean Lesage Int.

CURRENT METAR :
  • 102132Z 27014G26KT 15SM -SHRA FEW015 BKN035 BKN055 02/M04 A2964 RMK SC1SC5SC1 SLP041

EXPIRED METARs :
  • 102100Z 28017G22KT 25SM FEW018 BKN033 OVC060 03/M02 A2962 RMK SC1SC6SC1 OCNL -SHRA CVCTV CLD EMBD PRESRR SLP034
  • 102012Z 27017G25KT 12SM -SHRA FEW018 BKN033 OVC050 03/00 A2957 RMK SF1SC6SC1 VIS S QUAD HIER CVCTV CLD EMBD PRESRR SLP016
  • 102000Z CCA 28015G30KT 230V300 25SM -SHRA FEW020 BKN033 BKN050 OVC240 04/01 A2954 RMK SC2SC4SC1CI1 VIS W-NE 8 CVCTV CLD EMBD FROPA PRESRR SLP007
  • 101900Z 24015G27KT 30SM FEW020 BKN050 BKN070 06/01 A2951 RMK SC1SC4AC2 SLP998

TAF TAF CYQB
Valid from the 10 at 18:00 until the 11 at 18:00 UTC


101738Z 1018/1118 24012G22KT P6SM FEW015 BKN050
TEMPO 1018/1021 P6SM -SHRA SCT015 OVC050
FM102100 27015G25KT P6SM SCT020 BKN040
TEMPO 1021/1023 5SM -SHSN BKN020 OVC040
FM102300 27012G22KT P6SM FEW025 SCT050
BECMG 1104/1106 27008KT RMK NXT FCST BY 110000Z
ATIS : ENG : +1 418-871-6893 FRA : +1 418-871-6895



MET'MAP, your aeronautical weather chart ! - Copyright ORBIFLY December 2007 - Disclaimer

ORBIFLY MET'MAP TEAM :

Programming & Development : Alexandra Zaïnal
Concept & original design : Baudouin d'Aumeries
Assistance for programming : Marc-Olivier Méhu
Technical & hardware support : Manuel Goepfert

Contact : metmap@orbifly.com




SOURCES & CREDITS :

   NOAA